EFKK/KOK METAR and TAF weather

Enter ICAO airport designator
Station Type Date Time Source
EFKK METAR 2021/04/13 22:50 UTC NOAA

EFKK 132250Z AUTO 20008KT 9999 BKN014 02/M01 Q1014


Station Type Date Time Source
EFKK Decoded METAR 2021/04/13 22:50 UTC NOAA

Kruunupyy, Finland (EFKK) 63-43N 023-09E
Apr 13, 2021 - 06:50 PM EDT / 2021.04.13 2250 UTC
Wind: from the SSW (200 degrees) at 9 MPH (8 KT):0
Visibility: greater than 7 mile(s):0
Sky conditions: mostly cloudy
Temperature: 35 F (2 C)
Windchill: 28 F (-2 C):1
Dew Point: 30 F (-1 C)
Relative Humidity: 80%
Pressure (altimeter): 29.94 in. Hg (1014 hPa)
ob: EFKK 132250Z AUTO 20008KT 9999 BKN014 02/M01 Q1014
cycle: 23

Station Type Date Time Source
EFKK TAF 2019/04/22 21:42 UTC NOAA

TAF EFKK 222023Z 2221/2321 18006KT CAVOK

Example: see airport list